createdAt,value
2023-01-25T00:00:49.084Z,10.80
2023-01-25T00:03:16.131Z,9.53
2023-01-25T00:05:42.993Z,10.30
2023-01-25T00:08:09.697Z,9.57
2023-01-25T00:10:36.419Z,9.88
2023-01-25T00:13:05.478Z,10.33
2023-01-25T00:15:32.270Z,10.23
2023-01-25T00:17:59.024Z,9.70
2023-01-25T00:20:26.354Z,10.70
2023-01-25T00:22:53.218Z,9.77
2023-01-25T00:25:20.025Z,10.20
2023-01-25T00:27:46.764Z,10.40
2023-01-25T00:30:16.630Z,11.27
2023-01-25T00:32:54.326Z,11.00
2023-01-25T00:35:21.894Z,10.43
2023-01-25T00:37:51.477Z,10.15
2023-01-25T00:40:18.576Z,11.32
2023-01-25T00:42:45.528Z,10.38
2023-01-25T00:45:13.079Z,11.35
2023-01-25T00:47:39.971Z,11.20
2023-01-25T00:50:07.881Z,10.55
2023-01-25T00:52:34.842Z,10.60
2023-01-25T00:55:04.063Z,10.15
2023-01-25T00:57:30.935Z,11.07
2023-01-25T00:59:57.675Z,11.57
2023-01-25T01:02:24.405Z,11.38
2023-01-25T01:04:53.407Z,11.80
2023-01-25T01:07:20.196Z,11.63
2023-01-25T01:09:46.965Z,11.35
2023-01-25T01:12:13.716Z,11.88
2023-01-25T01:14:42.234Z,12.23
2023-01-25T01:17:09.036Z,12.50
2023-01-25T01:19:35.791Z,12.88
2023-01-25T01:22:02.614Z,13.23
2023-01-25T01:24:29.408Z,12.88
2023-01-25T01:26:56.291Z,12.20
2023-01-25T01:29:23.156Z,11.80
2023-01-25T01:32:51.971Z,12.70
2023-01-25T01:35:18.931Z,14.43
2023-01-25T01:37:45.705Z,13.85
2023-01-25T01:40:16.254Z,14.32
2023-01-25T01:42:59.511Z,14.82
2023-01-25T01:45:52.106Z,14.20
2023-01-25T01:48:32.968Z,13.63
2023-01-25T01:51:19.776Z,13.40
2023-01-25T01:54:19.777Z,14.13
2023-01-25T01:57:09.144Z,12.52
2023-01-25T01:59:52.779Z,13.25
2023-01-25T02:02:19.885Z,14.27
2023-01-25T02:04:48.935Z,14.02
2023-01-25T02:07:32.749Z,14.57
2023-01-25T02:10:01.930Z,14.68
2023-01-25T02:12:29.390Z,14.30
2023-01-25T02:14:56.126Z,13.88
2023-01-25T02:17:29.172Z,14.50
2023-01-25T02:20:08.397Z,13.68
2023-01-25T02:23:06.964Z,14.75
2023-01-25T02:25:34.695Z,14.07
2023-01-25T02:28:22.490Z,14.40
2023-01-25T02:30:49.429Z,13.38
2023-01-25T02:33:16.801Z,14.93
2023-01-25T02:35:51.313Z,15.55
2023-01-25T02:38:21.113Z,15.57
2023-01-25T02:41:30.029Z,16.30
2023-01-25T02:43:58.347Z,15.20
2023-01-25T02:46:34.283Z,16.43
2023-01-25T02:49:02.431Z,15.60
2023-01-25T02:51:32.835Z,15.68
2023-01-25T02:54:03.937Z,16.50
2023-01-25T02:56:30.957Z,15.33
2023-01-25T02:58:57.921Z,14.88
2023-01-25T03:01:25.056Z,15.52
2023-01-25T03:03:52.017Z,15.50
2023-01-25T03:06:19.409Z,15.15
2023-01-25T03:08:46.255Z,15.23
2023-01-25T03:11:14.080Z,16.52
2023-01-25T03:13:41.026Z,16.23
2023-01-25T03:16:10.426Z,16.95
2023-01-25T03:18:40.477Z,18.08
2023-01-25T03:21:14.233Z,16.50
2023-01-25T03:23:42.631Z,16.80
2023-01-25T03:26:13.907Z,17.20
2023-01-25T03:28:56.090Z,16.25
2023-01-25T03:31:23.332Z,16.25
2023-01-25T03:33:50.766Z,16.45
2023-01-25T03:36:18.809Z,15.73
2023-01-25T03:38:45.996Z,16.10
2023-01-25T03:41:13.888Z,18.10
2023-01-25T03:43:41.211Z,17.00
2023-01-25T03:46:10.277Z,18.40
2023-01-25T03:48:38.098Z,18.05
2023-01-25T03:51:05.078Z,17.23
2023-01-25T03:53:32.870Z,20.00
2023-01-25T03:56:09.384Z,17.90
2023-01-25T03:58:38.601Z,19.25
2023-01-25T04:01:07.124Z,18.83
2023-01-25T04:03:34.895Z,19.38
2023-01-25T04:06:02.419Z,18.75
2023-01-25T04:08:31.253Z,18.85
2023-01-25T04:11:05.337Z,19.42
2023-01-25T04:13:35.151Z,20.38
2023-01-25T04:16:03.073Z,18.85
2023-01-25T04:18:52.665Z,19.75
2023-01-25T04:21:21.799Z,20.63
2023-01-25T04:23:49.309Z,19.88
2023-01-25T04:26:16.656Z,21.48
2023-01-25T04:28:50.744Z,19.90
2023-01-25T04:31:17.788Z,19.67
2023-01-25T04:33:44.699Z,20.17
2023-01-25T04:36:13.345Z,20.40
2023-01-25T04:38:42.101Z,20.88
2023-01-25T04:41:10.329Z,20.63
2023-01-25T04:43:37.193Z,20.45
2023-01-25T04:46:09.511Z,21.63
2023-01-25T04:48:36.315Z,21.47
2023-01-25T04:51:06.090Z,21.07
2023-01-25T04:53:37.158Z,21.75
2023-01-25T04:56:06.633Z,21.27
2023-01-25T04:58:41.532Z,21.10
2023-01-25T05:01:08.366Z,21.85
2023-01-25T05:03:37.527Z,21.97
2023-01-25T05:06:08.156Z,22.33
2023-01-25T05:08:35.155Z,21.95
2023-01-25T05:11:03.241Z,22.40
2023-01-25T05:13:37.966Z,22.85
2023-01-25T05:16:17.226Z,21.60
2023-01-25T05:18:48.929Z,22.23
2023-01-25T05:21:38.867Z,23.08
2023-01-25T05:24:06.855Z,22.33
2023-01-25T05:26:52.997Z,22.70
2023-01-25T05:29:20.076Z,22.47
2023-01-25T05:31:54.918Z,23.27
2023-01-25T05:34:22.026Z,22.33
2023-01-25T05:36:56.810Z,24.08
2023-01-25T05:39:24.149Z,23.88
2023-01-25T05:41:51.629Z,22.80
2023-01-25T05:44:18.712Z,22.88
2023-01-25T05:46:49.043Z,23.27
2023-01-25T05:49:17.491Z,21.88
2023-01-25T05:51:45.426Z,22.80
2023-01-25T05:54:15.088Z,21.17
2023-01-25T05:56:45.940Z,22.77
2023-01-25T05:59:12.908Z,21.90
2023-01-25T06:01:42.228Z,21.60
2023-01-25T06:04:12.783Z,23.30
2023-01-25T06:06:39.581Z,22.15
2023-01-25T06:09:06.282Z,22.13
2023-01-25T06:11:33.096Z,22.23
2023-01-25T06:14:00.154Z,22.70
2023-01-25T06:16:27.608Z,21.40
2023-01-25T06:19:06.808Z,22.80
2023-01-25T06:21:52.006Z,22.60
2023-01-25T06:24:18.867Z,22.58
2023-01-25T06:26:45.739Z,21.98
2023-01-25T06:29:12.577Z,21.45
2023-01-25T06:31:39.481Z,21.98
2023-01-25T06:34:08.013Z,22.33
2023-01-25T06:36:34.806Z,22.15
2023-01-25T06:39:01.877Z,22.08
2023-01-25T06:41:29.159Z,22.73
2023-01-25T06:43:55.916Z,23.92
2023-01-25T06:46:22.753Z,22.73
2023-01-25T06:48:49.594Z,23.00
2023-01-25T06:51:19.021Z,24.13
2023-01-25T06:53:47.318Z,25.63
2023-01-25T06:56:18.067Z,25.90
2023-01-25T06:58:45.747Z,26.37
2023-01-25T07:01:20.010Z,29.10
2023-01-25T07:03:55.625Z,30.65
2023-01-25T07:06:23.420Z,28.70
2023-01-25T07:08:50.248Z,34.35
2023-01-25T07:11:19.080Z,34.95
2023-01-25T07:13:47.573Z,37.80
2023-01-25T07:16:18.420Z,35.70
2023-01-25T07:18:45.858Z,41.03
2023-01-25T07:21:18.364Z,47.60
2023-01-25T07:23:45.321Z,48.15
2023-01-25T07:26:20.733Z,47.50
2023-01-25T07:28:48.400Z,48.58
2023-01-25T07:31:15.883Z,54.35
2023-01-25T07:33:43.005Z,53.33
2023-01-25T07:36:12.247Z,52.20
2023-01-25T07:38:39.471Z,60.47
2023-01-25T07:41:06.460Z,62.40
2023-01-25T07:43:33.407Z,64.70
2023-01-25T07:46:05.220Z,69.05
2023-01-25T07:48:33.157Z,69.10
2023-01-25T07:51:20.325Z,69.70
2023-01-25T07:53:47.864Z,72.15
2023-01-25T07:56:14.645Z,71.97
2023-01-25T07:58:41.479Z,71.55
2023-01-25T08:01:09.604Z,73.20
2023-01-25T08:03:37.133Z,73.30
2023-01-25T08:06:07.610Z,75.65
2023-01-25T08:08:37.087Z,76.20
2023-01-25T08:11:23.363Z,72.85
2023-01-25T08:13:50.583Z,75.40
2023-01-25T08:16:20.149Z,79.45
2023-01-25T08:18:55.148Z,78.13
2023-01-25T08:21:24.252Z,71.63
2023-01-25T08:23:51.337Z,77.07
2023-01-25T08:26:18.488Z,79.22
2023-01-25T08:28:47.355Z,77.95
2023-01-25T08:31:21.065Z,78.55
2023-01-25T08:33:51.886Z,78.88
2023-01-25T08:36:19.792Z,79.38
2023-01-25T08:38:47.585Z,82.60
2023-01-25T08:41:17.008Z,77.60
2023-01-25T08:43:45.080Z,82.80
2023-01-25T08:46:13.693Z,84.07
2023-01-25T08:48:42.802Z,84.45
2023-01-25T08:51:12.873Z,88.13
2023-01-25T08:53:39.617Z,94.47
2023-01-25T08:56:11.057Z,101.60
2023-01-25T08:58:40.182Z,105.25
2023-01-25T09:01:08.947Z,105.05
2023-01-25T09:03:41.330Z,105.72
2023-01-25T09:06:19.701Z,108.35
2023-01-25T09:08:47.041Z,108.57
2023-01-25T09:11:16.874Z,109.03
2023-01-25T09:13:43.952Z,109.95
2023-01-25T09:16:14.727Z,110.65
2023-01-25T09:18:43.237Z,109.93
2023-01-25T09:21:15.160Z,119.03
2023-01-25T09:23:50.954Z,120.95
2023-01-25T09:26:25.063Z,128.35
2023-01-25T09:28:53.823Z,123.93
2023-01-25T09:31:24.168Z,120.30
2023-01-25T09:34:11.403Z,126.28
2023-01-25T09:36:38.425Z,121.78
2023-01-25T09:39:05.516Z,123.15
2023-01-25T09:41:42.539Z,125.60
2023-01-25T09:44:15.511Z,150.40
2023-01-25T09:46:56.673Z,156.82
2023-01-25T09:49:47.127Z,160.77
2023-01-25T09:52:47.185Z,159.60
2023-01-25T09:55:16.794Z,163.15
2023-01-25T09:57:46.458Z,164.38
2023-01-25T10:00:17.241Z,160.90
2023-01-25T10:02:52.279Z,157.93
2023-01-25T10:05:24.975Z,152.47
2023-01-25T10:08:06.859Z,151.43
2023-01-25T10:10:42.716Z,152.63
2023-01-25T10:13:15.304Z,143.15
2023-01-25T10:16:09.899Z,143.43
2023-01-25T10:19:00.084Z,140.53
2023-01-25T10:21:40.433Z,131.32
2023-01-25T10:24:26.133Z,131.23
2023-01-25T10:26:56.899Z,130.57
2023-01-25T10:29:31.027Z,127.07
2023-01-25T10:32:27.906Z,127.63
2023-01-25T10:35:00.160Z,120.10
2023-01-25T10:37:32.818Z,120.70
2023-01-25T10:40:14.091Z,115.80
2023-01-25T10:42:48.563Z,111.70
2023-01-25T10:45:17.211Z,114.60
2023-01-25T10:47:57.754Z,107.00
2023-01-25T10:50:42.343Z,106.65
2023-01-25T10:53:30.179Z,105.65
2023-01-25T10:56:22.003Z,105.82
2023-01-25T10:58:51.621Z,104.32
2023-01-25T11:01:27.810Z,98.93
2023-01-25T11:03:54.904Z,95.43
2023-01-25T11:06:46.653Z,97.95
2023-01-25T11:09:22.323Z,90.53
2023-01-25T11:12:00.298Z,90.90
2023-01-25T11:14:31.480Z,88.80
2023-01-25T11:17:00.306Z,87.80
2023-01-25T11:19:32.111Z,85.30
2023-01-25T11:22:00.489Z,83.93
2023-01-25T11:24:33.622Z,81.45
2023-01-25T11:27:30.115Z,83.07
2023-01-25T11:30:09.663Z,80.57
2023-01-25T11:32:39.222Z,78.72
2023-01-25T11:35:16.528Z,77.43
2023-01-25T11:38:08.044Z,74.75
2023-01-25T11:41:19.704Z,74.88
2023-01-25T11:44:12.239Z,73.30
2023-01-25T11:47:01.686Z,72.72
2023-01-25T11:49:42.927Z,73.47
2023-01-25T11:52:38.185Z,68.10
2023-01-25T11:55:29.096Z,64.28
2023-01-25T11:58:03.119Z,67.78
2023-01-25T12:00:29.835Z,66.68
2023-01-25T12:03:18.279Z,64.72
2023-01-25T12:06:34.743Z,62.67
2023-01-25T12:09:20.209Z,61.73
2023-01-25T12:12:03.707Z,61.38
2023-01-25T12:14:51.708Z,59.83
2023-01-25T12:17:47.885Z,60.25
2023-01-25T12:20:31.569Z,57.88
2023-01-25T12:23:17.241Z,55.53
2023-01-25T12:26:08.451Z,56.72
2023-01-25T12:28:54.386Z,55.00
2023-01-25T12:31:31.570Z,55.53
2023-01-25T12:34:04.896Z,52.28
2023-01-25T12:36:36.369Z,53.67
2023-01-25T12:39:07.061Z,52.95
2023-01-25T12:41:51.928Z,50.42
2023-01-25T12:44:35.010Z,49.35
2023-01-25T12:47:13.425Z,50.42
2023-01-25T12:49:48.829Z,47.60
2023-01-25T12:52:35.775Z,48.95
2023-01-25T12:55:05.968Z,48.72
2023-01-25T12:58:14.442Z,50.50
2023-01-25T13:01:07.249Z,51.25
2023-01-25T13:03:49.731Z,48.40
2023-01-25T13:06:22.669Z,51.92
2023-01-25T13:09:15.724Z,50.28
2023-01-25T13:11:47.925Z,48.45
2023-01-25T13:14:17.969Z,48.13
2023-01-25T13:17:01.424Z,47.97
2023-01-25T13:19:31.589Z,46.78
2023-01-25T13:22:00.183Z,47.42
2023-01-25T13:24:29.315Z,42.97
2023-01-25T13:26:58.274Z,46.00
2023-01-25T13:29:35.323Z,42.03
2023-01-25T13:32:03.797Z,43.67
2023-01-25T13:34:37.292Z,42.47
2023-01-25T13:37:24.662Z,43.55
2023-01-25T13:40:11.038Z,39.78
2023-01-25T13:42:39.579Z,42.35
2023-01-25T13:45:18.689Z,40.67
2023-01-25T13:48:05.506Z,39.35
2023-01-25T13:50:39.925Z,39.13
2023-01-25T13:53:14.539Z,40.63
2023-01-25T13:55:58.319Z,38.92
2023-01-25T13:58:27.860Z,38.90
2023-01-25T14:00:56.274Z,36.40
2023-01-25T14:03:27.958Z,39.30
2023-01-25T14:05:57.367Z,35.38
2023-01-25T14:08:25.987Z,35.97
2023-01-25T14:10:53.838Z,34.47
2023-01-25T14:13:20.617Z,35.45
2023-01-25T14:15:55.491Z,33.83
2023-01-25T14:18:28.706Z,37.10
2023-01-25T14:21:16.433Z,33.97
2023-01-25T14:23:43.895Z,33.63
2023-01-25T14:26:17.568Z,32.60
2023-01-25T14:28:59.298Z,35.00
2023-01-25T14:31:35.753Z,35.70
2023-01-25T14:34:04.716Z,33.47
2023-01-25T14:36:34.408Z,31.65
2023-01-25T14:39:03.810Z,32.70
2023-01-25T14:41:59.215Z,33.92
2023-01-25T14:44:28.500Z,31.75
2023-01-25T14:47:31.316Z,31.17
2023-01-25T14:50:36.331Z,32.85
2023-01-25T14:53:24.338Z,31.23
2023-01-25T14:55:53.267Z,32.53
2023-01-25T14:58:25.105Z,32.67
2023-01-25T15:00:53.119Z,34.73
2023-01-25T15:03:22.339Z,32.13
2023-01-25T15:05:51.839Z,32.53
2023-01-25T15:08:35.947Z,31.23
2023-01-25T15:11:21.694Z,30.92
2023-01-25T15:13:48.852Z,30.70
2023-01-25T15:16:16.360Z,30.15
2023-01-25T15:18:54.197Z,31.40
2023-01-25T15:21:30.142Z,33.75
2023-01-25T15:23:59.375Z,33.00
2023-01-25T15:26:29.488Z,34.17
2023-01-25T15:28:58.574Z,36.15
2023-01-25T15:31:27.041Z,34.92
2023-01-25T15:33:55.366Z,31.92
2023-01-25T15:36:22.888Z,34.13
2023-01-25T15:38:49.913Z,33.67
2023-01-25T15:41:18.517Z,36.30
2023-01-25T15:43:48.704Z,36.13
2023-01-25T15:46:19.589Z,38.85
2023-01-25T15:48:49.739Z,37.50
2023-01-25T15:51:17.169Z,37.73
2023-01-25T15:53:44.158Z,40.13
2023-01-25T15:56:15.854Z,41.15
2023-01-25T15:58:45.746Z,42.50
2023-01-25T16:01:15.182Z,41.23
2023-01-25T16:03:42.127Z,43.10
2023-01-25T16:06:35.514Z,45.05
2023-01-25T16:09:13.017Z,48.38
2023-01-25T16:11:39.862Z,46.95
2023-01-25T16:14:06.680Z,47.60
2023-01-25T16:16:37.334Z,51.03
2023-01-25T16:19:04.135Z,51.70
2023-01-25T16:21:30.991Z,51.25
2023-01-25T16:23:57.883Z,53.22
2023-01-25T16:26:27.285Z,54.40
2023-01-25T16:28:54.230Z,54.35
2023-01-25T16:31:31.737Z,56.38
2023-01-25T16:34:00.077Z,55.13
2023-01-25T16:36:27.002Z,56.47
2023-01-25T16:38:53.932Z,60.37
2023-01-25T16:41:20.883Z,63.83
2023-01-25T16:43:48.977Z,67.20
2023-01-25T16:46:22.311Z,73.60
2023-01-25T16:48:52.040Z,72.20
2023-01-25T16:51:24.493Z,75.18
2023-01-25T16:53:53.120Z,75.55
2023-01-25T16:56:24.363Z,75.63
2023-01-25T16:58:54.060Z,78.93
2023-01-25T17:01:21.969Z,78.67
2023-01-25T17:03:49.047Z,82.10
2023-01-25T17:06:30.860Z,76.75
2023-01-25T17:09:09.425Z,75.57
2023-01-25T17:11:39.979Z,80.07
2023-01-25T17:14:07.072Z,82.72
2023-01-25T17:16:34.387Z,82.35
2023-01-25T17:19:10.428Z,80.03
2023-01-25T17:21:37.257Z,81.72
2023-01-25T17:24:04.494Z,81.27
2023-01-25T17:26:35.195Z,86.40
2023-01-25T17:29:02.637Z,83.43
2023-01-25T17:31:33.021Z,83.80
2023-01-25T17:34:03.096Z,85.50
2023-01-25T17:36:32.302Z,85.35
2023-01-25T17:39:04.896Z,83.37
2023-01-25T17:41:31.906Z,84.53
2023-01-25T17:44:01.188Z,85.65
2023-01-25T17:46:32.845Z,85.30
2023-01-25T17:49:02.055Z,84.50
2023-01-25T17:51:29.350Z,86.13
2023-01-25T17:53:57.129Z,86.80
2023-01-25T17:56:24.021Z,90.75
2023-01-25T17:58:53.626Z,89.65
2023-01-25T18:01:25.537Z,95.65
2023-01-25T18:03:53.952Z,102.15
2023-01-25T18:06:24.863Z,101.50
2023-01-25T18:08:54.498Z,103.03
2023-01-25T18:11:24.538Z,104.25
2023-01-25T18:13:54.291Z,105.97
2023-01-25T18:16:23.175Z,100.95
2023-01-25T18:18:53.871Z,109.35
2023-01-25T18:21:26.156Z,113.63
2023-01-25T18:23:56.217Z,114.30
2023-01-25T18:26:31.112Z,112.93
2023-01-25T18:29:02.640Z,118.18
2023-01-25T18:31:31.820Z,116.67
2023-01-25T18:33:59.479Z,113.57
2023-01-25T18:36:27.464Z,114.50
2023-01-25T18:38:54.983Z,116.10
2023-01-25T18:41:21.730Z,116.65
2023-01-25T18:43:49.858Z,121.50
2023-01-25T18:46:16.775Z,115.25
2023-01-25T18:48:47.058Z,120.22
2023-01-25T18:51:18.080Z,116.43
2023-01-25T18:53:47.505Z,120.60
2023-01-25T18:56:31.914Z,119.80
2023-01-25T18:58:58.654Z,116.22
2023-01-25T19:01:27.731Z,117.10
2023-01-25T19:03:56.808Z,119.35
2023-01-25T19:06:24.926Z,119.78
2023-01-25T19:08:54.227Z,117.00
2023-01-25T19:11:22.813Z,118.22
2023-01-25T19:13:50.379Z,121.15
2023-01-25T19:16:20.136Z,126.22
2023-01-25T19:18:49.931Z,125.73
2023-01-25T19:21:19.941Z,124.40
2023-01-25T19:23:47.059Z,129.07
2023-01-25T19:26:18.965Z,124.88
2023-01-25T19:28:46.947Z,126.72
2023-01-25T19:31:20.410Z,131.53
2023-01-25T19:33:55.221Z,128.23
2023-01-25T19:36:22.107Z,130.73
2023-01-25T19:38:49.641Z,130.35
2023-01-25T19:41:21.837Z,123.82
2023-01-25T19:44:02.202Z,129.57
2023-01-25T19:46:33.792Z,132.18
2023-01-25T19:49:01.931Z,131.88
2023-01-25T19:51:33.132Z,129.57
2023-01-25T19:54:03.289Z,134.15
2023-01-25T19:56:35.514Z,129.20
2023-01-25T19:59:04.743Z,135.27
2023-01-25T20:01:37.707Z,132.57
2023-01-25T20:04:07.837Z,132.23
2023-01-25T20:06:34.972Z,131.97
2023-01-25T20:09:02.049Z,131.32
2023-01-25T20:11:32.779Z,133.25
2023-01-25T20:14:05.180Z,136.35
2023-01-25T20:16:33.884Z,131.87
2023-01-25T20:19:01.860Z,134.35
2023-01-25T20:21:30.927Z,135.50
2023-01-25T20:24:02.386Z,130.98
2023-01-25T20:26:42.618Z,134.27
2023-01-25T20:29:12.904Z,130.70
2023-01-25T20:31:42.332Z,129.18
2023-01-25T20:34:13.566Z,134.52
2023-01-25T20:36:41.084Z,129.18
2023-01-25T20:39:10.833Z,135.90
2023-01-25T20:41:39.915Z,134.82
2023-01-25T20:44:11.376Z,134.45
2023-01-25T20:46:40.143Z,137.93
2023-01-25T20:49:10.100Z,142.48
2023-01-25T20:51:37.157Z,139.48
2023-01-25T20:54:04.115Z,143.60
2023-01-25T20:56:31.662Z,147.50
2023-01-25T20:58:58.851Z,142.75
2023-01-25T21:01:29.454Z,138.15
2023-01-25T21:03:57.738Z,137.15
2023-01-25T21:06:26.229Z,142.05
2023-01-25T21:08:53.639Z,143.10
2023-01-25T21:11:26.064Z,138.67
2023-01-25T21:13:57.062Z,143.33
2023-01-25T21:16:24.011Z,141.80
2023-01-25T21:18:54.380Z,134.35
2023-01-25T21:21:27.644Z,133.23
2023-01-25T21:23:56.974Z,135.93
2023-01-25T21:26:26.717Z,136.00
2023-01-25T21:28:56.040Z,132.20
2023-01-25T21:31:25.611Z,130.85
2023-01-25T21:33:53.621Z,126.88
2023-01-25T21:36:21.866Z,129.63
2023-01-25T21:38:50.330Z,129.30
2023-01-25T21:41:21.083Z,129.13
2023-01-25T21:44:07.527Z,129.35
2023-01-25T21:46:38.208Z,128.55
2023-01-25T21:49:28.957Z,130.40
2023-01-25T21:52:01.624Z,134.00
2023-01-25T21:54:33.604Z,133.85
2023-01-25T21:57:01.906Z,130.57
2023-01-25T21:59:28.736Z,131.37
2023-01-25T22:01:56.333Z,129.23
2023-01-25T22:04:24.523Z,133.90
2023-01-25T22:06:54.676Z,123.80
2023-01-25T22:09:24.649Z,127.20
2023-01-25T22:11:53.346Z,123.63
2023-01-25T22:14:22.983Z,120.28
2023-01-25T22:16:50.949Z,119.47
2023-01-25T22:19:17.914Z,119.43
2023-01-25T22:21:47.247Z,112.68
2023-01-25T22:24:14.608Z,119.28
2023-01-25T22:27:23.969Z,114.55
2023-01-25T22:29:50.701Z,115.03
2023-01-25T22:32:21.911Z,113.57
2023-01-25T22:34:48.696Z,112.80
2023-01-25T22:37:15.454Z,111.68
2023-01-25T22:39:45.410Z,109.38
2023-01-25T22:42:12.205Z,109.68
2023-01-25T22:44:38.908Z,107.72
2023-01-25T22:47:05.883Z,109.68
2023-01-25T22:49:34.737Z,106.70
2023-01-25T22:52:08.716Z,106.55
2023-01-25T22:54:35.501Z,105.63
2023-01-25T22:57:02.315Z,106.88
2023-01-25T22:59:29.082Z,107.88
2023-01-25T23:01:55.894Z,109.00
2023-01-25T23:04:25.066Z,103.18
2023-01-25T23:07:02.389Z,106.50
2023-01-25T23:09:29.332Z,101.22
2023-01-25T23:11:58.470Z,100.35
2023-01-25T23:14:44.105Z,99.55
2023-01-25T23:17:29.572Z,98.05
2023-01-25T23:19:56.359Z,102.65
2023-01-25T23:22:23.211Z,99.13
2023-01-25T23:24:49.906Z,96.38
2023-01-25T23:27:16.652Z,99.25
2023-01-25T23:29:43.592Z,97.33
2023-01-25T23:32:10.895Z,93.70
2023-01-25T23:34:39.387Z,95.00
2023-01-25T23:37:06.229Z,94.05
2023-01-25T23:39:33.273Z,94.70
2023-01-25T23:41:59.988Z,92.97
2023-01-25T23:44:26.714Z,92.40
2023-01-25T23:46:53.620Z,89.38
2023-01-25T23:49:27.579Z,90.63
2023-01-25T23:51:54.341Z,94.15
2023-01-25T23:54:21.085Z,88.63
2023-01-25T23:56:48.011Z,89.60
2023-01-25T23:59:14.783Z,88.43
